createdAt,value
2023-03-22T00:01:55.569Z,6.50
2023-03-22T00:04:42.888Z,6.50
2023-03-22T00:07:28.292Z,6.50
2023-03-22T00:10:13.721Z,6.50
2023-03-22T00:13:00.322Z,6.50
2023-03-22T00:15:45.817Z,6.50
2023-03-22T00:18:31.774Z,6.50
2023-03-22T00:21:18.337Z,6.50
2023-03-22T00:24:04.218Z,6.50
2023-03-22T00:26:49.794Z,6.60
2023-03-22T00:29:35.443Z,6.60
2023-03-22T00:32:20.963Z,6.60
2023-03-22T00:35:07.518Z,6.60
2023-03-22T00:37:53.088Z,6.60
2023-03-22T00:40:38.900Z,6.60
2023-03-22T00:43:24.433Z,6.50
2023-03-22T00:46:11.423Z,6.50
2023-03-22T00:48:57.114Z,6.40
2023-03-22T00:51:42.469Z,6.40
2023-03-22T00:54:28.432Z,6.40
2023-03-22T00:57:14.547Z,6.30
2023-03-22T00:59:59.917Z,6.40
2023-03-22T01:02:45.482Z,6.40
2023-03-22T01:05:32.496Z,6.40
2023-03-22T01:08:18.279Z,6.40
2023-03-22T01:11:04.043Z,6.40
2023-03-22T01:13:49.931Z,6.40
2023-03-22T01:16:37.210Z,6.30
2023-03-22T01:19:23.824Z,6.40
2023-03-22T01:22:09.491Z,6.30
2023-03-22T01:24:54.933Z,6.30
2023-03-22T01:27:40.403Z,6.30
2023-03-22T01:30:25.804Z,6.30
2023-03-22T01:33:11.212Z,6.30
2023-03-22T01:35:56.938Z,6.30
2023-03-22T01:38:42.469Z,6.20
2023-03-22T01:41:28.065Z,6.20
2023-03-22T01:44:21.115Z,6.10
2023-03-22T01:47:10.923Z,6.10
2023-03-22T01:49:56.559Z,6.00
2023-03-22T01:52:42.044Z,5.90
2023-03-22T01:55:28.206Z,5.80
2023-03-22T01:58:16.576Z,5.70
2023-03-22T02:01:05.450Z,5.70
2023-03-22T02:03:58.702Z,5.60
2023-03-22T02:06:45.338Z,5.60
2023-03-22T02:09:30.764Z,5.60
2023-03-22T02:12:33.941Z,5.60
2023-03-22T02:15:29.858Z,5.60
2023-03-22T02:18:49.590Z,5.60
2023-03-22T02:22:13.291Z,5.60
2023-03-22T02:25:28.063Z,5.60
2023-03-22T02:28:49.245Z,5.70
2023-03-22T02:32:17.318Z,5.70
2023-03-22T02:36:26.256Z,5.70
2023-03-22T02:39:28.836Z,5.70
2023-03-22T02:42:50.503Z,5.70
2023-03-22T02:46:07.283Z,5.70
2023-03-22T02:49:02.502Z,5.80
2023-03-22T02:52:00.088Z,5.80
2023-03-22T02:55:29.638Z,5.90
2023-03-22T02:58:46.957Z,5.90
2023-03-22T03:01:55.926Z,5.90
2023-03-22T03:04:48.286Z,5.90
2023-03-22T03:07:34.924Z,5.90
2023-03-22T03:10:21.379Z,5.90
2023-03-22T03:13:13.761Z,5.90
2023-03-22T03:16:01.522Z,5.90
2023-03-22T03:19:14.073Z,6.00
2023-03-22T03:22:37.161Z,6.00
2023-03-22T03:25:51.615Z,6.00
2023-03-22T03:28:52.156Z,6.00
2023-03-22T03:31:51.633Z,6.00
2023-03-22T03:34:52.348Z,6.10
2023-03-22T03:37:51.420Z,6.10
2023-03-22T03:41:00.822Z,6.10
2023-03-22T03:43:48.466Z,6.20
2023-03-22T03:46:33.889Z,6.10
2023-03-22T03:49:20.750Z,6.20
2023-03-22T03:52:06.481Z,6.10
2023-03-22T03:54:52.585Z,6.20
2023-03-22T03:57:38.019Z,6.20
2023-03-22T04:00:23.665Z,6.20
2023-03-22T04:03:10.124Z,6.20
2023-03-22T04:05:55.591Z,6.20
2023-03-22T04:08:40.955Z,6.20
2023-03-22T04:11:26.368Z,6.20
2023-03-22T04:14:11.893Z,6.20
2023-03-22T04:16:57.456Z,6.20
2023-03-22T04:19:43.430Z,6.30
2023-03-22T04:22:28.811Z,6.20
2023-03-22T04:25:16.053Z,6.30
2023-03-22T04:28:01.966Z,6.30
2023-03-22T04:30:48.190Z,6.30
2023-03-22T04:33:33.727Z,6.30
2023-03-22T04:36:19.133Z,6.40
2023-03-22T04:39:10.057Z,6.40
2023-03-22T04:41:55.775Z,6.40
2023-03-22T04:44:41.186Z,6.40
2023-03-22T04:47:26.849Z,6.50
2023-03-22T04:50:12.719Z,6.50
2023-03-22T04:52:58.206Z,6.50
2023-03-22T04:55:43.532Z,6.60
2023-03-22T04:58:29.171Z,6.60
2023-03-22T05:01:18.219Z,6.60
2023-03-22T05:04:04.447Z,6.70
2023-03-22T05:06:50.190Z,6.70
2023-03-22T05:09:35.619Z,6.80
2023-03-22T05:12:21.063Z,6.80
2023-03-22T05:15:08.056Z,6.80
2023-03-22T05:17:54.067Z,6.90
2023-03-22T05:20:41.180Z,7.00
2023-03-22T05:23:27.011Z,7.10
2023-03-22T05:26:13.531Z,7.10
2023-03-22T05:28:59.246Z,7.20
2023-03-22T05:31:44.937Z,7.30
2023-03-22T05:34:30.490Z,7.40
2023-03-22T05:37:16.459Z,7.40
2023-03-22T05:40:02.594Z,7.50
2023-03-22T05:42:48.501Z,7.60
2023-03-22T05:45:36.879Z,7.70
2023-03-22T05:48:22.673Z,7.80
2023-03-22T05:51:12.418Z,7.90
2023-03-22T05:53:57.862Z,8.00
2023-03-22T05:56:43.659Z,8.00
2023-03-22T05:59:28.945Z,8.10
2023-03-22T06:02:14.518Z,8.20
2023-03-22T06:05:00.424Z,8.20
2023-03-22T06:07:45.779Z,8.30
2023-03-22T06:10:31.056Z,8.30
2023-03-22T06:13:17.506Z,8.50
2023-03-22T06:16:04.855Z,8.50
2023-03-22T06:18:50.764Z,8.60
2023-03-22T06:21:36.766Z,8.70
2023-03-22T06:24:22.477Z,8.80
2023-03-22T06:27:08.431Z,8.80
2023-03-22T06:29:53.860Z,8.90
2023-03-22T06:32:39.252Z,8.90
2023-03-22T06:35:24.918Z,9.00
2023-03-22T06:38:10.771Z,9.00
2023-03-22T06:40:56.547Z,9.00
2023-03-22T06:43:42.276Z,9.10
2023-03-22T06:46:27.680Z,9.10
2023-03-22T06:49:13.044Z,9.10
2023-03-22T06:51:58.428Z,9.20
2023-03-22T06:54:43.818Z,9.30
2023-03-22T06:57:29.204Z,9.30
2023-03-22T07:00:15.584Z,9.30
2023-03-22T07:03:01.184Z,9.40
2023-03-22T07:05:46.653Z,9.50
2023-03-22T07:08:32.442Z,9.60
2023-03-22T07:11:18.131Z,9.60
2023-03-22T07:14:03.711Z,9.80
2023-03-22T07:16:49.901Z,9.70
2023-03-22T07:19:36.026Z,9.80
2023-03-22T07:22:21.651Z,9.90
2023-03-22T07:25:07.757Z,10.10
2023-03-22T07:27:53.075Z,10.20
2023-03-22T07:30:40.019Z,10.20
2023-03-22T07:33:25.845Z,10.30
2023-03-22T07:36:12.133Z,10.40
2023-03-22T07:39:01.663Z,10.40
2023-03-22T07:41:47.419Z,10.60
2023-03-22T07:44:36.913Z,10.70
2023-03-22T07:47:39.539Z,10.80
2023-03-22T07:50:26.396Z,10.80
2023-03-22T07:53:12.681Z,10.90
2023-03-22T07:55:58.032Z,11.00
2023-03-22T07:58:43.641Z,11.10
2023-03-22T08:01:29.221Z,11.20
2023-03-22T08:04:14.508Z,11.30
2023-03-22T08:06:59.866Z,11.30
2023-03-22T08:09:45.976Z,11.20
2023-03-22T08:12:31.856Z,11.20
2023-03-22T08:15:17.249Z,11.30
2023-03-22T08:18:02.728Z,11.50
2023-03-22T08:20:56.567Z,11.60
2023-03-22T08:23:42.619Z,11.70
2023-03-22T08:26:28.670Z,12.00
2023-03-22T08:29:14.248Z,12.10
2023-03-22T08:31:59.832Z,12.20
2023-03-22T08:34:45.311Z,12.30
2023-03-22T08:37:30.777Z,12.30
2023-03-22T08:40:16.198Z,12.40
2023-03-22T08:43:01.584Z,12.70
2023-03-22T08:45:46.955Z,13.00
2023-03-22T08:48:32.595Z,13.30
2023-03-22T08:51:23.022Z,13.30
2023-03-22T08:54:09.076Z,13.50
2023-03-22T08:56:54.781Z,13.40
2023-03-22T08:59:40.465Z,13.40
2023-03-22T09:02:26.457Z,13.50
2023-03-22T09:05:12.444Z,13.80
2023-03-22T09:08:05.916Z,14.00
2023-03-22T09:10:52.416Z,14.10
2023-03-22T09:13:38.629Z,14.00
2023-03-22T09:16:24.326Z,13.90
2023-03-22T09:19:10.118Z,13.80
2023-03-22T09:21:56.056Z,14.00
2023-03-22T09:24:41.522Z,14.20
2023-03-22T09:27:26.753Z,14.40
2023-03-22T09:30:12.974Z,14.50
2023-03-22T09:32:59.036Z,14.30
2023-03-22T09:35:44.853Z,14.10
2023-03-22T09:38:30.512Z,14.00
2023-03-22T09:41:38.334Z,14.00
2023-03-22T09:44:50.264Z,14.10
2023-03-22T09:47:44.781Z,14.10
2023-03-22T09:50:33.065Z,14.10
2023-03-22T09:53:21.464Z,14.10
2023-03-22T09:56:26.153Z,13.90
2023-03-22T09:59:52.760Z,13.90
2023-03-22T10:03:09.424Z,14.10
2023-03-22T10:06:20.884Z,14.10
2023-03-22T10:10:06.459Z,14.60
2023-03-22T10:13:31.161Z,16.00
2023-03-22T10:16:28.893Z,19.70
2023-03-22T10:19:28.100Z,20.70
2023-03-22T10:22:19.656Z,21.10
2023-03-22T10:25:08.690Z,20.60
2023-03-22T10:27:55.133Z,19.40
2023-03-22T10:30:43.139Z,18.70
2023-03-22T10:33:51.815Z,20.00
2023-03-22T10:36:40.776Z,19.90
2023-03-22T10:39:41.166Z,19.70
2023-03-22T10:42:30.360Z,19.30
2023-03-22T10:45:16.451Z,20.80
2023-03-22T10:48:19.184Z,24.40
2023-03-22T10:51:06.679Z,23.80
2023-03-22T10:53:55.635Z,22.00
2023-03-22T10:56:41.121Z,20.40
2023-03-22T10:59:46.919Z,18.80
2023-03-22T11:02:33.076Z,18.00
2023-03-22T11:05:30.239Z,18.00
2023-03-22T11:08:15.634Z,17.80
2023-03-22T11:11:02.668Z,17.30
2023-03-22T11:14:16.509Z,16.90
2023-03-22T11:17:24.419Z,16.50
2023-03-22T11:20:19.473Z,16.20
2023-03-22T11:23:05.956Z,16.10
2023-03-22T11:25:56.932Z,16.00
2023-03-22T11:28:50.987Z,16.20
2023-03-22T11:32:26.704Z,16.60
2023-03-22T11:35:22.725Z,16.70
2023-03-22T11:38:40.942Z,16.90
2023-03-22T11:41:31.075Z,16.60
2023-03-22T11:44:20.760Z,16.50
2023-03-22T11:47:08.783Z,16.40
2023-03-22T11:50:09.432Z,16.50
2023-03-22T11:52:55.819Z,16.40
2023-03-22T11:55:43.616Z,16.20
2023-03-22T11:59:14.367Z,16.20
2023-03-22T12:02:50.859Z,16.30
2023-03-22T12:05:44.409Z,16.20
2023-03-22T12:09:03.971Z,16.10
2023-03-22T12:12:19.644Z,16.00
2023-03-22T12:15:28.782Z,16.00
2023-03-22T12:18:38.443Z,16.10
2023-03-22T12:21:24.009Z,16.10
2023-03-22T12:24:31.605Z,16.00
2023-03-22T12:27:36.147Z,16.00
2023-03-22T12:30:33.619Z,15.90
2023-03-22T12:33:40.525Z,15.90
2023-03-22T12:36:47.769Z,16.10
2023-03-22T12:39:43.286Z,16.10
2023-03-22T12:43:00.318Z,16.00
2023-03-22T12:45:58.160Z,16.00
2023-03-22T12:49:01.280Z,15.90
2023-03-22T12:51:48.996Z,16.10
2023-03-22T12:54:35.777Z,16.20
2023-03-22T12:57:21.374Z,16.10
2023-03-22T13:00:15.242Z,16.10
2023-03-22T13:03:28.024Z,16.10
2023-03-22T13:06:43.039Z,16.10
2023-03-22T13:09:28.484Z,16.20
2023-03-22T13:12:17.102Z,16.00
2023-03-22T13:15:13.266Z,15.90
2023-03-22T13:18:00.149Z,15.60
2023-03-22T13:21:19.638Z,15.50
2023-03-22T13:24:08.264Z,15.50
2023-03-22T13:26:55.362Z,15.40
2023-03-22T13:29:41.766Z,15.40
2023-03-22T13:32:32.595Z,15.30
2023-03-22T13:35:54.413Z,15.30
2023-03-22T13:38:43.420Z,15.30
2023-03-22T13:41:35.143Z,15.10
2023-03-22T13:44:38.038Z,15.00
2023-03-22T13:47:40.582Z,14.80
2023-03-22T13:50:31.096Z,14.70
2023-03-22T13:53:28.840Z,14.70
2023-03-22T13:56:40.730Z,14.70
2023-03-22T13:59:26.190Z,14.70
2023-03-22T14:02:34.888Z,14.60
2023-03-22T14:05:24.697Z,14.70
2023-03-22T14:08:25.016Z,14.70
2023-03-22T14:11:36.640Z,14.80
2023-03-22T14:14:36.461Z,14.90
2023-03-22T14:18:03.048Z,15.00
2023-03-22T14:21:13.996Z,15.00
